Time;durP1;ratioP1;P1;durP2;ratioP2;P2;SDS_P1;SDS_P2;PMS_P1;PMS_P2;Temp;Humidity;BMP_temperature;BMP_pressure;BME280_temperature;BME280_humidity;BME280_pressure;Samples;Min_cycle;Max_cycle;Signal;HPM_P1;HPM_P2
2022/09/14 00:01:52;;;;;;;0.55;0.40;;;18.60;59.80;20.70;93233.00;;;;10529766;27;45873;-59
2022/09/14 00:07:14;;;;;;;0.98;0.45;;;18.60;59.80;20.80;93219.00;;;;10516355;27;45223;-60
2022/09/14 00:12:34;;;;;;;0.40;0.30;;;18.60;59.80;20.70;93199.00;;;;10516424;27;45190;-60
2022/09/14 00:17:55;;;;;;;0.40;0.40;;;18.60;59.70;20.70;93210.00;;;;10537748;27;45154;-60
2022/09/14 00:23:17;;;;;;;0.40;0.40;;;18.60;59.70;20.70;93220.00;;;;10523088;27;45466;-60
2022/09/14 00:28:39;;;;;;;0.90;0.40;;;18.60;59.80;20.80;93212.00;;;;10548462;27;45254;-59
2022/09/14 00:34:01;;;;;;;0.50;0.40;;;18.70;59.80;20.70;93215.00;;;;10534497;27;45174;-59
2022/09/14 00:39:24;;;;;;;0.30;0.30;;;18.60;59.80;20.70;93226.00;;;;10535480;27;45993;-60
2022/09/14 00:45:08;;;;;;;0.38;0.30;;;18.60;60.50;20.70;93230.00;;;;10543647;27;45340;-59
2022/09/14 00:50:30;;;;;;;0.35;0.30;;;18.60;59.80;20.70;93225.00;;;;10550566;27;45262;-60
2022/09/14 00:55:53;;;;;;;0.40;0.30;;;18.60;59.80;20.70;93223.00;;;;10541297;27;45378;-60
2022/09/14 01:01:13;;;;;;;1.15;0.30;;;18.60;60.50;20.70;93210.00;;;;10540738;27;45451;-59
2022/09/14 01:06:41;;;;;;;0.40;0.40;;;18.60;59.80;20.70;93204.00;;;;10530227;27;45281;-59
2022/09/14 01:12:17;;;;;;;0.30;0.30;;;18.60;59.80;20.70;93195.00;;;;10532844;27;45268;-59
2022/09/14 01:17:45;;;;;;;0.68;0.40;;;18.60;59.80;20.70;93206.00;;;;10556198;27;45494;-59
2022/09/14 01:23:13;;;;;;;0.50;0.35;;;18.60;59.80;20.70;93229.00;;;;10538059;27;45275;-60
2022/09/14 01:28:43;;;;;;;0.50;0.30;;;18.60;59.80;20.70;93216.00;;;;10543758;27;45163;-60
2022/09/14 01:34:09;;;;;;;0.30;0.22;;;18.60;59.80;20.70;93216.00;;;;10541362;27;45457;-60
2022/09/14 01:39:33;;;;;;;0.30;0.30;;;18.60;59.80;20.70;93208.00;;;;10513083;27;45204;-59
2022/09/14 01:44:59;;;;;;;0.50;0.20;;;18.60;59.80;20.70;93192.00;;;;10537119;27;45369;-60
2022/09/14 01:50:30;;;;;;;0.50;0.47;;;18.60;59.80;20.70;93173.00;;;;10543566;27;45346;-60
2022/09/14 01:56:01;;;;;;;0.68;0.32;;;18.60;59.80;20.70;93172.00;;;;10555528;27;45386;-61
2022/09/14 02:01:31;;;;;;;0.80;0.40;;;18.60;59.80;20.70;93194.00;;;;10555158;27;45248;-60
2022/09/14 02:06:52;;;;;;;0.30;0.30;;;18.60;59.80;20.70;93191.00;;;;10554420;27;45749;-60
2022/09/14 02:12:12;;;;;;;0.50;0.30;;;18.60;59.80;20.70;93187.00;;;;10555291;27;45255;-60
2022/09/14 02:17:34;;;;;;;0.63;0.43;;;18.60;59.80;20.70;93183.00;;;;10527043;27;45212;-59
2022/09/14 02:22:55;;;;;;;0.50;0.43;;;18.60;59.80;20.70;93192.00;;;;10550252;27;45250;-60
2022/09/14 02:28:17;;;;;;;0.28;0.28;;;18.60;59.90;20.70;93193.00;;;;10541193;27;45340;-60
2022/09/14 02:33:48;;;;;;;0.30;0.30;;;18.60;59.80;20.70;93202.00;;;;10556492;27;45691;-59
2022/09/14 02:39:23;;;;;;;0.52;0.38;;;18.60;59.90;20.70;93190.00;;;;10529785;27;45668;-60
2022/09/14 02:44:54;;;;;;;0.30;0.28;;;18.60;59.90;20.70;93186.00;;;;10535252;27;45117;-59
2022/09/14 02:50:24;;;;;;;0.30;0.28;;;18.60;59.90;20.70;93189.00;;;;10531750;27;45174;-59
2022/09/14 02:55:50;;;;;;;0.20;0.20;;;18.60;59.90;20.70;93189.00;;;;10538613;27;45269;-60
2022/09/14 03:01:13;;;;;;;0.30;0.20;;;18.60;59.90;20.70;93159.00;;;;10530049;27;45474;-60
2022/09/14 03:06:35;;;;;;;0.30;0.30;;;18.60;59.90;20.70;93167.00;;;;10529375;27;45111;-60
2022/09/14 03:11:56;;;;;;;0.30;0.30;;;18.60;59.90;20.70;93161.00;;;;10529441;27;45198;-60
2022/09/14 03:17:16;;;;;;;1.10;0.43;;;18.60;59.90;20.70;93179.00;;;;10549817;27;45220;-60
2022/09/14 03:22:38;;;;;;;0.68;0.50;;;18.60;60.00;20.70;93175.00;;;;10549929;27;45374;-60
2022/09/14 03:28:00;;;;;;;0.63;0.40;;;18.60;59.90;20.70;93164.00;;;;10527075;27;44891;-59
2022/09/14 03:33:20;;;;;;;0.30;0.30;;;18.60;59.90;20.70;93169.00;;;;10543487;27;45126;-60
2022/09/14 03:38:44;;;;;;;0.68;0.40;;;18.60;59.90;20.70;93165.00;;;;10551511;27;45721;-59
2022/09/14 03:44:05;;;;;;;0.60;0.32;;;18.60;59.90;20.70;93143.00;;;;10540562;27;46168;-59
2022/09/14 03:49:25;;;;;;;0.30;0.30;;;18.60;59.90;20.70;93155.00;;;;10542581;27;45696;-59
2022/09/14 03:54:47;;;;;;;0.55;0.50;;;18.60;59.90;20.70;93158.00;;;;10535867;27;45948;-59
2022/09/14 04:00:10;;;;;;;0.57;0.40;;;18.60;59.90;20.70;93147.00;;;;10535205;27;45092;-59
2022/09/14 04:05:31;;;;;;;0.30;0.30;;;18.60;60.00;20.70;93156.00;;;;10542260;27;45218;-59
2022/09/14 04:10:53;;;;;;;0.50;0.38;;;18.60;59.90;20.70;93153.00;;;;10536116;27;45183;-59
2022/09/14 04:16:14;;;;;;;0.35;0.35;;;18.60;59.90;20.70;93153.00;;;;10517241;27;45325;-59
2022/09/14 04:21:34;;;;;;;0.43;0.40;;;18.60;60.00;20.70;93137.00;;;;10541587;27;45283;-60
2022/09/14 04:26:56;;;;;;;1.65;0.45;;;18.60;59.90;20.70;93137.00;;;;10539743;27;45238;-59
2022/09/14 04:32:17;;;;;;;0.43;0.38;;;18.60;59.90;20.70;93125.00;;;;10557144;27;45213;-59
2022/09/14 04:37:37;;;;;;;0.47;0.40;;;18.60;60.00;20.70;93127.00;;;;10528566;27;45210;-60
2022/09/14 04:42:59;;;;;;;0.40;0.40;;;18.60;60.00;20.70;93141.00;;;;10533241;27;45267;-59
2022/09/14 04:48:20;;;;;;;0.65;0.30;;;18.60;60.00;20.70;93139.00;;;;10532455;27;45147;-59
2022/09/14 04:53:41;;;;;;;0.60;0.30;;;18.60;60.00;20.70;93153.00;;;;10548472;27;45758;-60
2022/09/14 04:59:04;;;;;;;0.38;0.38;;;18.60;60.00;20.70;93129.00;;;;10526412;27;45224;-60
2022/09/14 05:04:25;;;;;;;0.40;0.40;;;18.60;60.10;20.70;93157.00;;;;10537796;27;45221;-60
2022/09/14 05:09:46;;;;;;;0.40;0.40;;;18.60;60.10;20.70;93140.00;;;;10521099;27;45221;-60
2022/09/14 05:15:09;;;;;;;0.30;0.30;;;18.60;60.10;20.70;93156.00;;;;10561633;27;45360;-60
2022/09/14 05:20:30;;;;;;;0.40;0.40;;;18.60;60.10;20.70;93157.00;;;;10541500;27;45166;-59
2022/09/14 05:25:52;;;;;;;1.10;0.40;;;18.60;60.10;20.70;93154.00;;;;10533737;27;45828;-59
2022/09/14 05:31:15;;;;;;;1.10;0.70;;;18.60;60.10;20.70;93170.00;;;;10538771;27;45656;-60
2022/09/14 05:36:36;;;;;;;0.77;0.43;;;18.60;60.10;20.70;93144.00;;;;10523299;27;45174;-60
2022/09/14 05:41:57;;;;;;;0.47;0.32;;;18.60;60.10;20.70;93161.00;;;;10546496;27;45799;-59
2022/09/14 05:47:19;;;;;;;0.30;0.30;;;18.60;60.10;20.70;93145.00;;;;10522796;27;45391;-60
2022/09/14 05:52:39;;;;;;;0.45;0.40;;;18.60;60.10;20.70;93153.00;;;;10538440;27;45203;-59
2022/09/14 05:58:00;;;;;;;0.70;0.35;;;18.60;60.10;20.70;93153.00;;;;10540015;27;45171;-59
2022/09/14 06:03:22;;;;;;;0.93;0.35;;;18.60;60.10;20.70;93146.00;;;;10531264;27;45105;-59
2022/09/14 06:08:43;;;;;;;0.55;0.30;;;18.60;60.20;20.70;93160.00;;;;10532350;27;45461;-61
2022/09/14 06:14:05;;;;;;;0.40;0.40;;;18.60;60.20;20.70;93155.00;;;;10544676;27;45216;-60
2022/09/14 06:19:27;;;;;;;0.85;0.50;;;18.60;60.50;20.70;93140.00;;;;10517205;27;45218;-60
2022/09/14 06:24:48;;;;;;;1.55;0.50;;;18.60;61.20;20.70;93140.00;;;;10526810;27;45251;-60
2022/09/14 06:30:10;;;;;;;1.70;0.52;;;18.60;61.30;20.70;93133.00;;;;10529631;27;45844;-60
2022/09/14 06:35:32;;;;;;;0.80;0.45;;;18.60;61.40;20.70;93153.00;;;;10538059;27;45521;-60
2022/09/14 06:40:55;;;;;;;0.82;0.30;;;18.60;61.30;20.70;93171.00;;;;10554106;27;45218;-59
2022/09/14 06:46:18;;;;;;;0.75;0.50;;;18.60;61.40;20.70;93161.00;;;;10553544;27;45206;-59
2022/09/14 06:51:43;;;;;;;0.40;0.30;;;18.60;61.30;20.70;93163.00;;;;10552258;27;45186;-59
2022/09/14 06:57:04;;;;;;;7.47;0.52;;;18.60;61.30;20.70;93176.00;;;;10538759;27;45925;-60
2022/09/14 07:02:24;;;;;;;2.05;0.68;;;18.60;61.20;20.70;93194.00;;;;10511084;27;45276;-59
2022/09/14 07:07:46;;;;;;;0.57;0.30;;;18.70;61.20;20.70;93193.00;;;;10522672;27;45295;-60
2022/09/14 07:13:07;;;;;;;0.70;0.40;;;18.60;61.20;20.80;93204.00;;;;10538628;27;45247;-60
2022/09/14 07:18:31;;;;;;;1.70;0.57;;;18.60;61.20;20.70;93186.00;;;;10530984;27;45684;-59
2022/09/14 07:23:54;;;;;;;0.93;0.50;;;18.60;61.10;20.70;93187.00;;;;10545186;27;45901;-59
2022/09/14 07:29:18;;;;;;;1.40;0.50;;;18.60;61.10;20.80;93206.00;;;;10530863;27;45484;-60
2022/09/14 07:34:38;;;;;;;0.63;0.47;;;18.60;61.10;20.80;93209.00;;;;10529473;27;45935;-59
2022/09/14 07:40:01;;;;;;;1.27;0.68;;;18.60;61.20;20.80;93200.00;;;;10517232;27;45227;-59
2022/09/14 07:45:21;;;;;;;1.83;0.70;;;18.70;62.30;20.80;93223.00;;;;10517605;27;45839;-60
2022/09/14 07:50:42;;;;;;;0.47;0.35;;;18.70;62.40;20.90;93255.00;;;;10531736;27;45315;-59
2022/09/14 07:56:05;;;;;;;0.88;0.55;;;18.70;62.50;20.90;93227.00;;;;10527381;27;45711;-60
2022/09/14 08:01:28;;;;;;;5.70;0.77;;;18.70;62.10;20.80;93250.00;;;;10517972;27;45268;-60
2022/09/14 08:06:48;;;;;;;0.80;0.47;;;18.80;62.10;20.80;93246.00;;;;10532472;27;45249;-58
2022/09/14 08:12:10;;;;;;;1.33;0.70;;;18.70;62.00;20.80;93245.00;;;;10519055;27;45230;-59
2022/09/14 08:17:31;;;;;;;1.38;0.70;;;18.70;61.80;20.80;93259.00;;;;10524926;27;45169;-58
2022/09/14 08:22:52;;;;;;;2.47;0.70;;;18.70;61.80;20.80;93261.00;;;;10535409;27;45226;-58
2022/09/14 08:28:14;;;;;;;3.05;0.70;;;18.70;62.10;20.80;93249.00;;;;10528278;27;45928;-58
2022/09/14 08:33:36;;;;;;;1.40;0.80;;;18.70;61.90;20.90;93263.00;;;;10544400;27;45821;-59
2022/09/14 08:38:57;;;;;;;2.40;0.55;;;18.80;62.50;20.90;93269.00;;;;10543047;27;45212;-59
2022/09/14 08:44:25;;;;;;;2.25;0.75;;;18.80;62.40;20.90;93274.00;;;;10556476;27;45257;-59
2022/09/14 08:49:50;;;;;;;0.68;0.40;;;18.80;62.20;20.90;93259.00;;;;10555698;27;45341;-60
2022/09/14 08:55:26;;;;;;;1.25;0.60;;;18.80;62.50;20.90;93263.00;;;;10541133;27;45233;-60
2022/09/14 09:00:54;;;;;;;1.30;0.70;;;18.80;62.50;20.90;93241.00;;;;10520652;27;45894;-60
2022/09/14 09:06:19;;;;;;;1.65;0.60;;;18.80;62.30;20.90;93234.00;;;;10511271;27;45258;-60
2022/09/14 09:11:45;;;;;;;0.70;0.50;;;18.80;62.30;20.90;93247.00;;;;10544983;27;45441;-60
2022/09/14 09:17:18;;;;;;;3.45;0.60;;;18.80;62.20;20.90;93237.00;;;;10552038;27;45541;-59
2022/09/14 09:22:41;;;;;;;0.60;0.40;;;18.80;62.10;20.90;93224.00;;;;10557584;27;45178;-60
2022/09/14 09:28:11;;;;;;;1.60;0.50;;;18.80;61.90;20.90;93231.00;;;;10555776;27;45858;-59
2022/09/14 09:33:33;;;;;;;1.27;0.60;;;18.70;61.80;20.90;93208.00;;;;10540293;27;45197;-59
2022/09/14 09:38:54;;;;;;;0.98;0.52;;;18.80;61.80;20.90;93206.00;;;;10538544;27;45873;-60
2022/09/14 09:44:15;;;;;;;2.55;0.80;;;18.80;61.70;20.90;93187.00;;;;10514152;27;45241;-60
2022/09/14 09:49:39;;;;;;;2.47;0.57;;;18.80;61.70;20.90;93185.00;;;;10525192;27;46746;-59
2022/09/14 09:55:08;;;;;;;0.50;0.50;;;18.80;61.70;20.90;93176.00;;;;10512852;27;45195;-60
2022/09/14 10:00:29;;;;;;;1.25;0.65;;;18.80;61.60;20.90;93170.00;;;;10539842;27;45176;-60
2022/09/14 10:06:04;;;;;;;0.50;0.40;;;18.80;61.60;20.90;93161.00;;;;10528393;27;45980;-61
2022/09/14 10:11:32;;;;;;;2.63;0.50;;;18.80;61.70;20.90;93154.00;;;;10512670;27;45138;-60
2022/09/14 10:16:53;;;;;;;0.85;0.45;;;18.80;61.50;20.90;93151.00;;;;10512100;27;45158;-60
2022/09/14 10:22:26;;;;;;;0.85;0.52;;;18.80;61.50;20.90;93144.00;;;;10526152;27;45793;-61
2022/09/14 10:27:51;;;;;;;0.82;0.43;;;18.80;61.50;20.90;93134.00;;;;10544069;27;45731;-59
2022/09/14 10:33:17;;;;;;;1.33;0.50;;;18.80;61.50;20.90;93121.00;;;;10535560;27;45753;-59
2022/09/14 10:38:44;;;;;;;1.67;0.70;;;18.80;61.50;20.90;93106.00;;;;10515617;27;45247;-60
2022/09/14 10:44:30;;;;;;;0.80;0.50;;;18.80;61.50;20.90;93101.00;;;;10511008;27;45252;-60
2022/09/14 10:50:07;;;;;;;1.40;0.60;;;18.80;61.70;20.90;93095.00;;;;10510548;27;45247;-59
2022/09/14 10:55:35;;;;;;;;;;;18.80;61.60;20.90;93079.00;;;;10510632;27;45237;-61
2022/09/14 11:01:16;;;;;;;1.15;0.70;;;18.80;61.60;21.00;93091.00;;;;10534322;27;45296;-60
2022/09/14 11:06:52;;;;;;;1.20;0.60;;;18.80;61.60;20.90;93078.00;;;;10540690;27;45245;-59
2022/09/14 11:12:21;;;;;;;0.88;0.60;;;18.80;61.70;21.00;93078.00;;;;10553123;27;46265;-58
2022/09/14 11:18:00;;;;;;;0.50;0.50;;;18.90;61.80;21.00;93089.00;;;;10552177;27;45198;-60
2022/09/14 11:23:37;;;;;;;1.27;0.60;;;18.90;62.50;21.00;93101.00;;;;10552908;27;45281;-60
2022/09/14 11:29:16;;;;;;;0.85;0.40;;;18.90;61.80;21.00;93112.00;;;;10534738;27;45719;-61
2022/09/14 11:34:41;;;;;;;1.02;0.50;;;18.90;61.90;21.00;93090.00;;;;10519387;27;45248;-59
2022/09/14 11:40:09;;;;;;;2.15;0.50;;;18.90;62.00;21.00;93103.00;;;;10546192;27;45174;-60
2022/09/14 11:45:40;;;;;;;0.75;0.50;;;18.90;61.90;21.00;93104.00;;;;10533046;27;45277;-59
2022/09/14 11:51:11;;;;;;;2.00;0.60;;;18.90;62.00;21.00;93127.00;;;;10507319;27;45168;-59
2022/09/14 11:56:33;;;;;;;0.75;0.40;;;18.90;62.10;21.00;93131.00;;;;10513365;27;45429;-59
2022/09/14 12:01:55;;;;;;;0.88;0.45;;;18.90;62.10;21.00;93130.00;;;;10535106;27;45805;-59
2022/09/14 12:08:00;;;;;;;0.63;0.40;;;18.90;62.20;21.00;93138.00;;;;10514359;27;45226;-60
2022/09/14 12:13:20;;;;;;;1.13;0.50;;;18.90;62.30;21.00;93131.00;;;;10514332;27;45207;-59
2022/09/14 12:18:55;;;;;;;3.38;0.60;;;18.90;62.80;21.10;93152.00;;;;10528028;27;45384;-60
2022/09/14 12:24:21;;;;;;;1.52;0.80;;;18.90;63.60;21.10;93136.00;;;;10540377;27;45360;-60
2022/09/14 12:29:41;;;;;;;4.93;0.70;;;19.00;63.90;21.10;93138.00;;;;10550150;27;45335;-60
2022/09/14 12:35:50;;;;;;;2.58;0.73;;;19.00;64.00;21.10;93152.00;;;;10522046;27;45183;-60
2022/09/14 12:42:04;;;;;;;5.00;0.70;;;19.00;64.00;21.10;93155.00;;;;10516050;27;45671;-60
2022/09/14 12:47:57;;;;;;;2.53;0.77;;;19.00;64.00;21.10;93155.00;;;;10515137;27;45173;-59
2022/09/14 12:53:29;;;;;;;3.92;1.20;;;19.00;64.10;21.10;93167.00;;;;10514788;27;45796;-59
2022/09/14 12:59:03;;;;;;;3.50;0.88;;;18.90;64.20;21.10;93138.00;;;;10519593;27;45227;-60
2022/09/14 13:04:28;;;;;;;2.40;0.88;;;19.00;64.20;21.20;93160.00;;;;10523993;27;45704;-60
2022/09/14 13:09:53;;;;;;;6.72;1.23;;;19.00;63.90;21.20;93177.00;;;;10544741;27;45893;-61
2022/09/14 13:15:21;;;;;;;3.47;0.90;;;19.10;64.10;21.20;93176.00;;;;10556494;27;45169;-59
2022/09/14 13:20:51;;;;;;;5.55;1.00;;;19.10;64.00;21.20;93166.00;;;;10553298;27;45444;-59
2022/09/14 13:26:19;;;;;;;5.40;0.90;;;19.10;64.10;21.20;93167.00;;;;10551413;27;45832;-59
2022/09/14 13:31:40;;;;;;;4.80;0.75;;;19.10;64.20;21.20;93167.00;;;;10550332;27;45687;-59
2022/09/14 13:37:01;;;;;;;2.15;0.68;;;19.00;64.20;21.20;93190.00;;;;10513114;27;45213;-59
2022/09/14 13:42:24;;;;;;;4.43;0.70;;;19.10;64.30;21.20;93171.00;;;;10538293;27;45160;-59
2022/09/14 13:47:45;;;;;;;4.50;0.85;;;19.00;64.10;21.20;93140.00;;;;10520144;27;45868;-59
2022/09/14 13:53:05;;;;;;;1.98;0.60;;;19.00;64.60;21.10;93151.00;;;;10533871;27;45226;-60
2022/09/14 13:58:27;;;;;;;3.75;0.70;;;19.00;64.60;21.20;93140.00;;;;10529687;27;45173;-60
2022/09/14 14:03:49;;;;;;;5.20;0.85;;;19.10;64.70;21.20;93159.00;;;;10524932;27;45221;-60
2022/09/14 14:09:11;;;;;;;3.92;0.70;;;19.10;64.70;21.20;93143.00;;;;10530027;27;45770;-60
2022/09/14 14:14:33;;;;;;;2.35;0.68;;;19.10;64.80;21.20;93138.00;;;;10517405;27;45202;-60
2022/09/14 14:19:56;;;;;;;1.73;0.60;;;19.10;65.00;21.20;93135.00;;;;10540304;27;45980;-61
2022/09/14 14:25:29;;;;;;;3.53;0.47;;;19.10;65.10;21.20;93126.00;;;;10538608;27;45370;-60
2022/09/14 14:30:52;;;;;;;1.92;0.70;;;19.10;65.30;21.20;93124.00;;;;10526830;27;45535;-60
2022/09/14 14:36:13;;;;;;;3.08;0.70;;;19.10;65.40;21.20;93126.00;;;;10529408;27;45800;-61
2022/09/14 14:41:34;;;;;;;2.00;0.77;;;19.10;65.30;21.20;93124.00;;;;10527420;27;45229;-60
2022/09/14 14:46:56;;;;;;;4.80;0.70;;;19.10;65.30;21.20;93118.00;;;;10531470;27;45357;-61
2022/09/14 14:52:16;;;;;;;1.73;0.65;;;19.00;65.30;21.20;93118.00;;;;10524948;27;45190;-60
2022/09/14 14:57:37;;;;;;;3.67;0.73;;;19.00;65.40;21.20;93124.00;;;;10511190;27;45187;-60
2022/09/14 15:02:59;;;;;;;1.00;0.40;;;19.00;65.30;21.20;93114.00;;;;10523725;27;45245;-60
2022/09/14 15:08:20;;;;;;;0.82;0.40;;;19.00;65.30;21.20;93080.00;;;;10510548;27;45231;-60
2022/09/14 15:13:40;;;;;;;3.38;0.55;;;19.00;65.10;21.20;93099.00;;;;10511147;27;45183;-60
2022/09/14 15:19:02;;;;;;;1.55;0.57;;;19.10;65.40;21.20;93080.00;;;;10510537;27;45248;-61
2022/09/14 15:24:23;;;;;;;3.25;0.60;;;19.00;65.50;21.20;93113.00;;;;10515530;27;45289;-60
2022/09/14 15:29:43;;;;;;;3.10;0.70;;;19.00;65.70;21.20;93114.00;;;;10536886;27;45167;-61
2022/09/14 15:35:07;;;;;;;4.13;0.60;;;19.00;65.60;21.20;93090.00;;;;10528765;27;45250;-60
2022/09/14 15:40:28;;;;;;;1.58;0.60;;;19.00;65.70;21.20;93097.00;;;;10517326;27;45259;-60
2022/09/14 15:45:48;;;;;;;4.32;0.80;;;19.00;65.50;21.20;93098.00;;;;10512445;27;45308;-61
2022/09/14 15:51:11;;;;;;;2.45;0.43;;;19.00;65.40;21.10;93082.00;;;;10522114;27;45419;-60
2022/09/14 15:56:32;;;;;;;2.08;0.50;;;19.00;65.30;21.10;93064.00;;;;10529613;27;45279;-60
2022/09/14 16:01:53;;;;;;;1.40;0.50;;;19.00;65.30;21.10;93052.00;;;;10550618;27;45171;-60
2022/09/14 16:07:15;;;;;;;1.38;0.50;;;19.00;65.30;21.10;93051.00;;;;10534297;27;45337;-61
2022/09/14 16:12:36;;;;;;;1.42;0.45;;;19.00;65.10;21.10;93049.00;;;;10534170;27;45679;-60
2022/09/14 16:17:56;;;;;;;2.65;0.32;;;19.00;65.10;21.10;93065.00;;;;10533960;27;45251;-60
2022/09/14 16:23:18;;;;;;;1.45;0.77;;;19.00;65.10;21.10;93066.00;;;;10532448;27;45890;-60
2022/09/14 16:28:39;;;;;;;0.88;0.40;;;19.00;65.10;21.10;93081.00;;;;10556946;27;44961;-61
2022/09/14 16:34:04;;;;;;;1.73;0.68;;;19.00;65.10;21.10;93078.00;;;;10543889;27;45165;-61
2022/09/14 16:39:29;;;;;;;0.70;0.40;;;19.00;65.20;21.10;93091.00;;;;10535544;27;45788;-60
2022/09/14 16:44:49;;;;;;;1.73;0.50;;;19.00;65.20;21.10;93081.00;;;;10534516;27;45316;-61
2022/09/14 16:50:10;;;;;;;1.50;0.60;;;19.00;65.30;21.10;93086.00;;;;10531412;27;45291;-61
2022/09/14 16:55:33;;;;;;;0.90;0.47;;;18.90;65.30;21.10;93074.00;;;;10533562;27;45397;-60
2022/09/14 17:00:54;;;;;;;2.80;0.50;;;18.90;65.30;21.10;93073.00;;;;10535873;27;45166;-61
2022/09/14 17:06:18;;;;;;;0.65;0.55;;;18.90;65.40;21.10;93084.00;;;;10529336;27;45209;-61
2022/09/14 17:11:41;;;;;;;1.30;0.50;;;18.90;65.40;21.10;93086.00;;;;10533543;27;45712;-60
2022/09/14 17:17:02;;;;;;;1.05;0.50;;;18.90;65.40;21.10;93082.00;;;;10529047;27;45855;-61
2022/09/14 17:22:22;;;;;;;1.70;0.60;;;18.90;65.40;21.00;93078.00;;;;10526138;27;45181;-61
2022/09/14 17:27:44;;;;;;;2.03;0.50;;;18.90;65.50;21.10;93093.00;;;;10514746;27;45379;-61
2022/09/14 17:33:05;;;;;;;1.35;0.57;;;18.90;65.50;21.10;93082.00;;;;10526401;27;45231;-61
2022/09/14 17:38:28;;;;;;;1.73;0.50;;;18.90;65.50;21.00;93087.00;;;;10542475;27;45217;-61
2022/09/14 17:43:54;;;;;;;1.27;0.50;;;18.90;65.50;21.00;93070.00;;;;10554685;27;45259;-61
2022/09/14 17:49:14;;;;;;;1.38;0.43;;;18.90;65.60;21.10;93086.00;;;;10512787;27;45270;-60
2022/09/14 17:54:35;;;;;;;1.00;0.40;;;18.90;65.60;21.00;93097.00;;;;10512825;27;45217;-61
2022/09/14 17:59:57;;;;;;;1.35;0.30;;;18.90;65.60;21.00;93104.00;;;;10518654;27;45336;-61
2022/09/14 18:05:18;;;;;;;1.63;0.47;;;18.90;65.60;21.00;93123.00;;;;10535864;27;45234;-61
2022/09/14 18:10:38;;;;;;;1.15;0.60;;;18.90;65.60;21.00;93120.00;;;;10530218;27;45837;-61
2022/09/14 18:16:01;;;;;;;1.02;0.40;;;18.90;65.60;21.00;93136.00;;;;10512720;27;45428;-61
2022/09/14 18:21:21;;;;;;;1.90;0.60;;;18.90;65.70;21.00;93125.00;;;;10526096;27;45398;-61
2022/09/14 18:26:43;;;;;;;0.88;0.40;;;18.80;65.50;21.00;93125.00;;;;10534734;27;45193;-60
2022/09/14 18:32:05;;;;;;;0.45;0.35;;;18.90;65.60;21.00;93134.00;;;;10553682;27;45206;-60
2022/09/14 18:37:26;;;;;;;0.77;0.50;;;18.90;65.60;21.00;93120.00;;;;10510810;28;45825;-60
2022/09/14 18:42:47;;;;;;;0.80;0.47;;;18.90;65.60;21.00;93082.00;;;;10511455;27;45263;-60
2022/09/14 18:48:09;;;;;;;0.22;0.22;;;18.90;65.60;21.00;93088.00;;;;10510541;27;45209;-61
2022/09/14 18:53:29;;;;;;;0.63;0.40;;;18.90;65.50;21.00;93100.00;;;;10524942;27;45215;-61
2022/09/14 18:58:50;;;;;;;1.02;0.43;;;18.80;66.20;21.00;93114.00;;;;10510520;27;45511;-61
2022/09/14 19:04:14;;;;;;;0.98;0.50;;;18.90;65.40;21.00;93103.00;;;;10533271;27;45420;-61
2022/09/14 19:09:35;;;;;;;1.02;0.40;;;18.90;65.40;21.00;93117.00;;;;10543532;27;45227;-61
2022/09/14 19:14:55;;;;;;;1.63;0.40;;;18.90;65.40;21.00;93131.00;;;;10560808;27;45149;-60
2022/09/14 19:20:18;;;;;;;0.70;0.40;;;18.90;65.30;21.00;93132.00;;;;10558936;27;45742;-61
2022/09/14 19:25:40;;;;;;;3.35;0.30;;;18.90;65.30;21.00;93128.00;;;;10558709;27;45396;-61
2022/09/14 19:31:04;;;;;;;0.60;0.20;;;18.90;65.30;21.00;93124.00;;;;10559703;27;45516;-61
2022/09/14 19:36:27;;;;;;;1.00;0.35;;;18.90;65.20;21.00;93118.00;;;;10523498;27;45841;-61
2022/09/14 19:41:48;;;;;;;0.50;0.40;;;18.80;65.10;21.00;93108.00;;;;10517013;27;45167;-60
2022/09/14 19:47:08;;;;;;;0.75;0.40;;;18.80;65.10;21.00;93106.00;;;;10521371;27;45242;-60
2022/09/14 19:52:30;;;;;;;0.50;0.40;;;18.90;65.10;21.00;93108.00;;;;10541077;27;45234;-61
2022/09/14 19:57:51;;;;;;;2.30;0.43;;;18.80;64.90;21.00;93111.00;;;;10521399;27;45329;-61
2022/09/14 20:03:11;;;;;;;0.65;0.40;;;18.80;64.80;21.00;93105.00;;;;10536672;27;45289;-61
2022/09/14 20:08:34;;;;;;;0.88;0.40;;;18.80;64.80;21.00;93109.00;;;;10515287;27;45777;-61
2022/09/14 20:13:57;;;;;;;0.52;0.30;;;18.80;64.80;21.00;93113.00;;;;10512149;27;45296;-61
2022/09/14 20:19:20;;;;;;;1.23;0.38;;;18.90;64.80;20.90;93110.00;;;;10516235;27;45159;-60
2022/09/14 20:24:42;;;;;;;0.90;0.40;;;18.80;64.60;20.90;93097.00;;;;10522504;27;45228;-61
2022/09/14 20:30:04;;;;;;;0.65;0.30;;;18.80;64.60;20.90;93097.00;;;;10557761;27;45304;-61
2022/09/14 20:35:24;;;;;;;0.73;0.45;;;18.80;64.70;20.90;93092.00;;;;10533507;27;45746;-61
2022/09/14 20:40:46;;;;;;;0.57;0.40;;;18.80;64.60;20.90;93104.00;;;;10528303;27;45240;-60
2022/09/14 20:46:10;;;;;;;0.55;0.32;;;18.80;64.50;20.90;93115.00;;;;10514401;27;45688;-61
2022/09/14 20:51:31;;;;;;;0.55;0.30;;;18.80;64.70;20.90;93114.00;;;;10514055;27;45203;-60
2022/09/14 20:56:53;;;;;;;0.40;0.20;;;18.80;64.40;20.90;93104.00;;;;10545301;27;45259;-61
2022/09/14 21:02:14;;;;;;;0.60;0.30;;;18.80;64.30;20.90;93112.00;;;;10536156;27;45325;-60
2022/09/14 21:07:34;;;;;;;1.10;0.40;;;18.80;64.30;20.90;93126.00;;;;10534752;27;45758;-60
2022/09/14 21:12:56;;;;;;;0.30;0.20;;;18.80;64.20;20.90;93167.00;;;;10514751;27;45695;-60
2022/09/14 21:18:17;;;;;;;0.55;0.40;;;18.80;64.10;20.90;93180.00;;;;10514713;27;45494;-60
2022/09/14 21:23:38;;;;;;;0.30;0.25;;;18.80;64.20;20.80;93177.00;;;;10515030;27;45163;-60
2022/09/14 21:29:05;;;;;;;0.20;0.20;;;18.70;64.00;20.80;93169.00;;;;10553862;27;45341;-61
2022/09/14 21:34:26;;;;;;;0.95;0.40;;;18.70;64.20;20.90;93170.00;;;;10555958;27;45727;-60
2022/09/14 21:39:46;;;;;;;0.65;0.30;;;18.70;63.90;20.90;93175.00;;;;10555577;27;45137;-60
2022/09/14 21:45:10;;;;;;;0.73;0.30;;;18.70;63.70;20.90;93173.00;;;;10513623;27;45439;-60
2022/09/14 21:50:30;;;;;;;0.77;0.45;;;18.70;63.60;20.90;93165.00;;;;10526629;27;45534;-60
2022/09/14 21:55:51;;;;;;;0.55;0.30;;;18.70;63.60;20.90;93175.00;;;;10517177;27;45226;-60
2022/09/14 22:01:14;;;;;;;0.20;0.20;;;18.70;63.50;20.80;93192.00;;;;10522864;27;45210;-60
2022/09/14 22:06:35;;;;;;;0.22;0.20;;;18.70;63.60;20.80;93201.00;;;;10533687;27;45519;-60
2022/09/14 22:11:56;;;;;;;0.90;0.30;;;18.70;63.60;20.80;93211.00;;;;10512742;27;45234;-60
2022/09/14 22:17:18;;;;;;;0.43;0.20;;;18.70;63.50;20.80;93203.00;;;;10511839;27;45201;-60
2022/09/14 22:22:39;;;;;;;0.35;0.30;;;18.70;63.50;20.80;93211.00;;;;10526721;27;45221;-60
2022/09/14 22:28:00;;;;;;;0.60;0.30;;;18.70;63.40;20.80;93202.00;;;;10551566;27;45159;-61
2022/09/14 22:33:24;;;;;;;0.47;0.32;;;18.70;63.40;20.80;93225.00;;;;10544966;27;45237;-60
2022/09/14 22:38:45;;;;;;;0.43;0.32;;;18.70;63.30;20.80;93227.00;;;;10523996;27;45274;-60
2022/09/14 22:44:07;;;;;;;0.90;0.30;;;18.70;63.20;20.80;93227.00;;;;10524901;27;45566;-60
2022/09/14 22:49:29;;;;;;;1.40;0.25;;;18.70;63.20;20.80;93233.00;;;;10510625;27;45179;-61
2022/09/14 22:54:50;;;;;;;0.40;0.20;;;18.70;63.10;20.80;93239.00;;;;10511863;27;45476;-61
2022/09/14 23:00:12;;;;;;;0.32;0.20;;;18.70;63.10;20.80;93242.00;;;;10522981;27;45804;-61
2022/09/14 23:05:36;;;;;;;0.52;0.20;;;18.70;63.10;20.80;93246.00;;;;10525642;27;45224;-61
2022/09/14 23:10:57;;;;;;;0.40;0.20;;;18.70;62.90;20.80;93238.00;;;;10513990;27;45343;-61
2022/09/14 23:16:21;;;;;;;0.35;0.20;;;18.70;62.90;20.80;93239.00;;;;10510685;27;45381;-60
2022/09/14 23:21:42;;;;;;;0.50;0.30;;;18.70;62.90;20.80;93243.00;;;;10510468;27;45221;-61
2022/09/14 23:27:04;;;;;;;0.43;0.32;;;18.70;62.80;20.80;93238.00;;;;10535915;27;45766;-61
2022/09/14 23:32:25;;;;;;;0.10;0.10;;;18.70;62.80;20.80;93257.00;;;;10551215;27;45416;-62
2022/09/14 23:37:47;;;;;;;0.22;0.10;;;18.70;62.70;20.80;93258.00;;;;10510123;27;45219;-62
2022/09/14 23:43:07;;;;;;;0.20;0.13;;;18.70;62.50;20.80;93241.00;;;;10521109;27;45919;-61